sensor_id;sensor_type;location;lat;lon;timestamp;pressure;altitude;pressure_sealevel;temperature
60731;BMP280;46580;52.114;11.674;2022-08-27T00:00:13;100636.50;;;21.65
60731;BMP280;46580;52.114;11.674;2022-08-27T00:02:40;100635.63;;;21.59
60731;BMP280;46580;52.114;11.674;2022-08-27T00:05:07;100637.34;;;21.52
60731;BMP280;46580;52.114;11.674;2022-08-27T00:07:32;100646.78;;;21.46
60731;BMP280;46580;52.114;11.674;2022-08-27T00:09:58;100646.16;;;21.44
60731;BMP280;46580;52.114;11.674;2022-08-27T00:12:23;100647.81;;;21.31
60731;BMP280;46580;52.114;11.674;2022-08-27T00:14:49;100659.28;;;21.30
60731;BMP280;46580;52.114;11.674;2022-08-27T00:17:14;100660.28;;;21.29
60731;BMP280;46580;52.114;11.674;2022-08-27T00:19:40;100653.06;;;21.31
60731;BMP280;46580;52.114;11.674;2022-08-27T00:22:07;100645.31;;;21.23
60731;BMP280;46580;52.114;11.674;2022-08-27T00:24:33;100649.47;;;21.18
60731;BMP280;46580;52.114;11.674;2022-08-27T00:26:59;100643.03;;;21.35
60731;BMP280;46580;52.114;11.674;2022-08-27T00:29:24;100649.81;;;21.29
60731;BMP280;46580;52.114;11.674;2022-08-27T00:31:53;100650.25;;;21.33
60731;BMP280;46580;52.114;11.674;2022-08-27T00:34:19;100643.47;;;21.38
60731;BMP280;46580;52.114;11.674;2022-08-27T00:36:45;100646.56;;;21.27
60731;BMP280;46580;52.114;11.674;2022-08-27T00:39:11;100649.66;;;21.17
60731;BMP280;46580;52.114;11.674;2022-08-27T00:41:38;100654.28;;;21.15
60731;BMP280;46580;52.114;11.674;2022-08-27T00:44:04;100647.69;;;21.19
60731;BMP280;46580;52.114;11.674;2022-08-27T00:46:36;100652.38;;;21.09
60731;BMP280;46580;52.114;11.674;2022-08-27T00:51:55;100656.00;;;20.80
60731;BMP280;46580;52.114;11.674;2022-08-27T00:54:21;100653.75;;;20.77
60731;BMP280;46580;52.114;11.674;2022-08-27T00:56:47;100652.50;;;20.73
60731;BMP280;46580;52.114;11.674;2022-08-27T00:59:15;100641.47;;;20.77
60731;BMP280;46580;52.114;11.674;2022-08-27T01:04:09;100641.94;;;20.81
60731;BMP280;46580;52.114;11.674;2022-08-27T01:06:36;100641.03;;;20.88
60731;BMP280;46580;52.114;11.674;2022-08-27T01:09:07;100641.63;;;20.90
60731;BMP280;46580;52.114;11.674;2022-08-27T01:11:34;100644.91;;;20.92
60731;BMP280;46580;52.114;11.674;2022-08-27T01:14:01;100652.75;;;20.78
60731;BMP280;46580;52.114;11.674;2022-08-27T01:16:32;100650.06;;;20.86
60731;BMP280;46580;52.114;11.674;2022-08-27T01:19:05;100639.84;;;20.90
60731;BMP280;46580;52.114;11.674;2022-08-27T01:21:54;100640.66;;;20.77
60731;BMP280;46580;52.114;11.674;2022-08-27T01:24:45;100630.28;;;20.69
60731;BMP280;46580;52.114;11.674;2022-08-27T01:27:15;100623.72;;;20.73
60731;BMP280;46580;52.114;11.674;2022-08-27T01:29:42;100630.50;;;20.67
60731;BMP280;46580;52.114;11.674;2022-08-27T01:32:20;100627.97;;;20.60
60731;BMP280;46580;52.114;11.674;2022-08-27T01:34:46;100636.53;;;20.68
60731;BMP280;46580;52.114;11.674;2022-08-27T01:37:13;100647.28;;;20.59
60731;BMP280;46580;52.114;11.674;2022-08-27T01:39:39;100641.41;;;20.57
60731;BMP280;46580;52.114;11.674;2022-08-27T01:42:09;100649.34;;;20.63
60731;BMP280;46580;52.114;11.674;2022-08-27T01:44:50;100648.34;;;20.64
60731;BMP280;46580;52.114;11.674;2022-08-27T01:47:18;100647.81;;;20.54
60731;BMP280;46580;52.114;11.674;2022-08-27T01:49:44;100648.72;;;20.61
60731;BMP280;46580;52.114;11.674;2022-08-27T01:52:10;100643.19;;;20.85
60731;BMP280;46580;52.114;11.674;2022-08-27T01:54:36;100651.94;;;20.77
60731;BMP280;46580;52.114;11.674;2022-08-27T01:57:01;100659.97;;;20.76
60731;BMP280;46580;52.114;11.674;2022-08-27T01:59:27;100665.09;;;20.84
60731;BMP280;46580;52.114;11.674;2022-08-27T02:01:53;100671.44;;;20.75
60731;BMP280;46580;52.114;11.674;2022-08-27T02:04:19;100669.81;;;20.74
60731;BMP280;46580;52.114;11.674;2022-08-27T02:06:46;100667.72;;;20.84
60731;BMP280;46580;52.114;11.674;2022-08-27T02:09:12;100668.03;;;20.74
60731;BMP280;46580;52.114;11.674;2022-08-27T02:11:37;100664.75;;;20.72
60731;BMP280;46580;52.114;11.674;2022-08-27T02:14:02;100675.06;;;20.60
60731;BMP280;46580;52.114;11.674;2022-08-27T02:16:29;100669.66;;;20.61
60731;BMP280;46580;52.114;11.674;2022-08-27T02:18:57;100676.69;;;20.75
60731;BMP280;46580;52.114;11.674;2022-08-27T02:21:22;100683.00;;;20.80
60731;BMP280;46580;52.114;11.674;2022-08-27T02:23:48;100681.63;;;20.56
60731;BMP280;46580;52.114;11.674;2022-08-27T02:26:13;100693.78;;;20.49
60731;BMP280;46580;52.114;11.674;2022-08-27T02:28:38;100692.28;;;20.54
60731;BMP280;46580;52.114;11.674;2022-08-27T02:31:03;100687.31;;;20.45
60731;BMP280;46580;52.114;11.674;2022-08-27T02:33:29;100690.56;;;20.47
60731;BMP280;46580;52.114;11.674;2022-08-27T02:35:57;100700.38;;;20.45
60731;BMP280;46580;52.114;11.674;2022-08-27T02:38:23;100702.00;;;20.46
60731;BMP280;46580;52.114;11.674;2022-08-27T02:40:48;100694.97;;;20.47
60731;BMP280;46580;52.114;11.674;2022-08-27T02:43:13;100698.03;;;20.64
60731;BMP280;46580;52.114;11.674;2022-08-27T02:45:39;100691.25;;;20.55
60731;BMP280;46580;52.114;11.674;2022-08-27T02:48:05;100690.38;;;20.63
60731;BMP280;46580;52.114;11.674;2022-08-27T02:50:31;100687.16;;;20.75
60731;BMP280;46580;52.114;11.674;2022-08-27T02:52:57;100681.44;;;20.57
60731;BMP280;46580;52.114;11.674;2022-08-27T02:55:24;100684.13;;;20.49
60731;BMP280;46580;52.114;11.674;2022-08-27T02:57:49;100680.38;;;20.52
60731;BMP280;46580;52.114;11.674;2022-08-27T03:00:18;100686.66;;;20.57
60731;BMP280;46580;52.114;11.674;2022-08-27T03:02:45;100684.16;;;20.64
60731;BMP280;46580;52.114;11.674;2022-08-27T03:05:11;100679.81;;;20.56
60731;BMP280;46580;52.114;11.674;2022-08-27T03:07:37;100677.84;;;20.58
60731;BMP280;46580;52.114;11.674;2022-08-27T03:10:03;100683.34;;;20.63
60731;BMP280;46580;52.114;11.674;2022-08-27T03:12:29;100679.81;;;20.70
60731;BMP280;46580;52.114;11.674;2022-08-27T03:14:56;100683.41;;;20.55
60731;BMP280;46580;52.114;11.674;2022-08-27T03:17:21;100687.31;;;20.59
60731;BMP280;46580;52.114;11.674;2022-08-27T03:20:05;100685.03;;;20.56
60731;BMP280;46580;52.114;11.674;2022-08-27T03:22:32;100687.59;;;20.78
60731;BMP280;46580;52.114;11.674;2022-08-27T03:24:57;100680.13;;;20.75
60731;BMP280;46580;52.114;11.674;2022-08-27T03:27:22;100681.72;;;20.76
60731;BMP280;46580;52.114;11.674;2022-08-27T03:29:48;100680.19;;;20.67
60731;BMP280;46580;52.114;11.674;2022-08-27T03:32:15;100684.06;;;20.57
60731;BMP280;46580;52.114;11.674;2022-08-27T03:34:40;100680.47;;;20.72
60731;BMP280;46580;52.114;11.674;2022-08-27T03:37:06;100674.97;;;20.67
60731;BMP280;46580;52.114;11.674;2022-08-27T03:39:31;100678.09;;;20.63
60731;BMP280;46580;52.114;11.674;2022-08-27T03:41:56;100681.09;;;20.60
60731;BMP280;46580;52.114;11.674;2022-08-27T03:44:22;100681.00;;;20.54
60731;BMP280;46580;52.114;11.674;2022-08-27T03:46:51;100675.13;;;20.66
60731;BMP280;46580;52.114;11.674;2022-08-27T03:49:18;100668.75;;;20.54
60731;BMP280;46580;52.114;11.674;2022-08-27T03:51:44;100664.41;;;20.47
60731;BMP280;46580;52.114;11.674;2022-08-27T03:54:10;100660.50;;;20.43
60731;BMP280;46580;52.114;11.674;2022-08-27T03:56:35;100660.69;;;20.42
60731;BMP280;46580;52.114;11.674;2022-08-27T03:59:04;100657.88;;;20.43
60731;BMP280;46580;52.114;11.674;2022-08-27T04:01:30;100659.19;;;20.47
60731;BMP280;46580;52.114;11.674;2022-08-27T04:03:56;100656.91;;;20.44
60731;BMP280;46580;52.114;11.674;2022-08-27T04:06:21;100653.84;;;20.41
60731;BMP280;46580;52.114;11.674;2022-08-27T04:08:46;100656.00;;;20.51
60731;BMP280;46580;52.114;11.674;2022-08-27T04:11:12;100660.59;;;20.49
60731;BMP280;46580;52.114;11.674;2022-08-27T04:13:37;100657.97;;;20.49
60731;BMP280;46580;52.114;11.674;2022-08-27T04:16:03;100655.81;;;20.39
60731;BMP280;46580;52.114;11.674;2022-08-27T04:18:29;100656.50;;;20.33
60731;BMP280;46580;52.114;11.674;2022-08-27T04:20:54;100660.88;;;20.40
60731;BMP280;46580;52.114;11.674;2022-08-27T04:23:20;100652.09;;;20.33
60731;BMP280;46580;52.114;11.674;2022-08-27T04:25:46;100663.38;;;20.34
60731;BMP280;46580;52.114;11.674;2022-08-27T04:28:13;100665.03;;;20.35
60731;BMP280;46580;52.114;11.674;2022-08-27T04:30:40;100671.78;;;20.44
60731;BMP280;46580;52.114;11.674;2022-08-27T04:33:07;100672.19;;;20.33
60731;BMP280;46580;52.114;11.674;2022-08-27T04:35:33;100674.16;;;20.31
60731;BMP280;46580;52.114;11.674;2022-08-27T04:37:58;100673.81;;;20.34
60731;BMP280;46580;52.114;11.674;2022-08-27T04:40:23;100677.09;;;20.36
60731;BMP280;46580;52.114;11.674;2022-08-27T04:43:08;100670.88;;;20.37
60731;BMP280;46580;52.114;11.674;2022-08-27T04:45:47;100671.13;;;20.42
60731;BMP280;46580;52.114;11.674;2022-08-27T04:48:15;100672.59;;;20.44
60731;BMP280;46580;52.114;11.674;2022-08-27T04:50:42;100676.03;;;20.45
60731;BMP280;46580;52.114;11.674;2022-08-27T04:53:09;100679.19;;;20.54
60731;BMP280;46580;52.114;11.674;2022-08-27T04:55:43;100675.50;;;20.63
60731;BMP280;46580;52.114;11.674;2022-08-27T04:58:08;100680.69;;;20.49
60731;BMP280;46580;52.114;11.674;2022-08-27T05:00:40;100676.94;;;20.51
60731;BMP280;46580;52.114;11.674;2022-08-27T05:03:05;100676.69;;;20.61
60731;BMP280;46580;52.114;11.674;2022-08-27T05:05:30;100674.66;;;20.63
60731;BMP280;46580;52.114;11.674;2022-08-27T05:07:56;100679.00;;;20.56
60731;BMP280;46580;52.114;11.674;2022-08-27T05:10:21;100675.31;;;20.50
60731;BMP280;46580;52.114;11.674;2022-08-27T05:12:46;100675.69;;;20.48
60731;BMP280;46580;52.114;11.674;2022-08-27T05:15:13;100677.66;;;20.46
60731;BMP280;46580;52.114;11.674;2022-08-27T05:17:38;100676.03;;;20.45
60731;BMP280;46580;52.114;11.674;2022-08-27T05:20:04;100679.28;;;20.47
60731;BMP280;46580;52.114;11.674;2022-08-27T05:22:29;100681.34;;;20.51
60731;BMP280;46580;52.114;11.674;2022-08-27T05:24:55;100675.13;;;20.66
60731;BMP280;46580;52.114;11.674;2022-08-27T05:27:25;100675.06;;;20.60
60731;BMP280;46580;52.114;11.674;2022-08-27T05:29:50;100669.91;;;20.52
60731;BMP280;46580;52.114;11.674;2022-08-27T05:32:16;100672.03;;;20.48
60731;BMP280;46580;52.114;11.674;2022-08-27T05:34:41;100676.50;;;20.48
60731;BMP280;46580;52.114;11.674;2022-08-27T05:37:06;100677.19;;;20.56
60731;BMP280;46580;52.114;11.674;2022-08-27T05:39:32;100680.19;;;20.53
60731;BMP280;46580;52.114;11.674;2022-08-27T05:41:58;100676.84;;;20.59
60731;BMP280;46580;52.114;11.674;2022-08-27T05:44:23;100681.34;;;20.51
60731;BMP280;46580;52.114;11.674;2022-08-27T05:46:49;100678.09;;;20.49
60731;BMP280;46580;52.114;11.674;2022-08-27T05:49:14;100679.38;;;20.53
60731;BMP280;46580;52.114;11.674;2022-08-27T05:51:40;100682.34;;;20.50
60731;BMP280;46580;52.114;11.674;2022-08-27T05:54:08;100684.06;;;20.57
60731;BMP280;46580;52.114;11.674;2022-08-27T05:56:36;100680.91;;;20.48
60731;BMP280;46580;52.114;11.674;2022-08-27T05:59:03;100687.06;;;20.54
60731;BMP280;46580;52.114;11.674;2022-08-27T06:01:49;100686.94;;;20.62
60731;BMP280;46580;52.114;11.674;2022-08-27T06:04:16;100688.13;;;20.60
60731;BMP280;46580;52.114;11.674;2022-08-27T06:06:42;100687.56;;;20.64
60731;BMP280;46580;52.114;11.674;2022-08-27T06:09:10;100685.69;;;20.58
60731;BMP280;46580;52.114;11.674;2022-08-27T06:11:36;100688.13;;;20.74
60731;BMP280;46580;52.114;11.674;2022-08-27T06:14:02;100690.66;;;20.67
60731;BMP280;46580;52.114;11.674;2022-08-27T06:16:28;100695.06;;;20.67
60731;BMP280;46580;52.114;11.674;2022-08-27T06:18:53;100687.41;;;20.66
60731;BMP280;46580;52.114;11.674;2022-08-27T06:21:21;100697.88;;;20.66
60731;BMP280;46580;52.114;11.674;2022-08-27T06:23:46;100692.38;;;20.61
60731;BMP280;46580;52.114;11.674;2022-08-27T06:26:14;100697.53;;;20.68
60731;BMP280;46580;52.114;11.674;2022-08-27T06:28:39;100697.50;;;20.83
60731;BMP280;46580;52.114;11.674;2022-08-27T06:31:11;100700.41;;;20.87
60731;BMP280;46580;52.114;11.674;2022-08-27T06:33:37;100695.50;;;20.99
60731;BMP280;46580;52.114;11.674;2022-08-27T06:36:06;100695.16;;;20.87
60731;BMP280;46580;52.114;11.674;2022-08-27T06:38:33;100703.81;;;21.02
60731;BMP280;46580;52.114;11.674;2022-08-27T06:40:58;100695.16;;;20.87
60731;BMP280;46580;52.114;11.674;2022-08-27T06:43:25;100694.78;;;20.90
60731;BMP280;46580;52.114;11.674;2022-08-27T06:45:51;100697.16;;;20.86
60731;BMP280;46580;52.114;11.674;2022-08-27T06:48:18;100691.44;;;20.82
60731;BMP280;46580;52.114;11.674;2022-08-27T06:50:44;100690.56;;;20.75
60731;BMP280;46580;52.114;11.674;2022-08-27T06:53:10;100692.38;;;20.75
60731;BMP280;46580;52.114;11.674;2022-08-27T06:55:43;100689.75;;;20.75
60731;BMP280;46580;52.114;11.674;2022-08-27T06:58:09;100689.38;;;20.78
60731;BMP280;46580;52.114;11.674;2022-08-27T07:00:35;100695.81;;;20.75
60731;BMP280;46580;52.114;11.674;2022-08-27T07:03:00;100702.19;;;20.73
60731;BMP280;46580;52.114;11.674;2022-08-27T07:05:40;100702.03;;;20.88
60731;BMP280;46580;52.114;11.674;2022-08-27T07:08:07;100706.97;;;20.98
60731;BMP280;46580;52.114;11.674;2022-08-27T07:10:33;100708.34;;;21.08
60731;BMP280;46580;52.114;11.674;2022-08-27T07:12:58;100705.06;;;21.06
60731;BMP280;46580;52.114;11.674;2022-08-27T07:15:24;100708.25;;;21.02
60731;BMP280;46580;52.114;11.674;2022-08-27T07:17:49;100705.25;;;21.19
60731;BMP280;46580;52.114;11.674;2022-08-27T07:20:16;100713.69;;;21.14
60731;BMP280;46580;52.114;11.674;2022-08-27T07:22:42;100713.59;;;21.22
60731;BMP280;46580;52.114;11.674;2022-08-27T07:25:16;100714.25;;;21.44
60731;BMP280;46580;52.114;11.674;2022-08-27T07:27:48;100712.91;;;21.34
60731;BMP280;46580;52.114;11.674;2022-08-27T07:30:15;100714.19;;;21.24
60731;BMP280;46580;52.114;11.674;2022-08-27T07:32:42;100727.84;;;21.20
60731;BMP280;46580;52.114;11.674;2022-08-27T07:35:08;100719.50;;;21.30
60731;BMP280;46580;52.114;11.674;2022-08-27T07:38:10;100731.00;;;21.15
60731;BMP280;46580;52.114;11.674;2022-08-27T07:40:36;100739.34;;;21.11
60731;BMP280;46580;52.114;11.674;2022-08-27T07:43:04;100732.50;;;21.10
60731;BMP280;46580;52.114;11.674;2022-08-27T07:45:48;100744.28;;;21.14
60731;BMP280;46580;52.114;11.674;2022-08-27T07:48:14;100739.34;;;21.11
60731;BMP280;46580;52.114;11.674;2022-08-27T07:50:41;100733.13;;;21.40
60731;BMP280;46580;52.114;11.674;2022-08-27T07:53:09;100738.34;;;21.54
60731;BMP280;46580;52.114;11.674;2022-08-27T07:55:36;100738.41;;;21.61
60731;BMP280;46580;52.114;11.674;2022-08-27T07:58:03;100739.66;;;21.64
60731;BMP280;46580;52.114;11.674;2022-08-27T08:00:30;100731.06;;;21.70
60731;BMP280;46580;52.114;11.674;2022-08-27T08:02:56;100728.22;;;21.86
60731;BMP280;46580;52.114;11.674;2022-08-27T08:05:25;100734.34;;;21.93
60731;BMP280;46580;52.114;11.674;2022-08-27T08:07:51;100739.69;;;21.85
60731;BMP280;46580;52.114;11.674;2022-08-27T08:10:17;100737.00;;;21.79
60731;BMP280;46580;52.114;11.674;2022-08-27T08:12:46;100733.94;;;21.89
60731;BMP280;46580;52.114;11.674;2022-08-27T08:15:12;100734.06;;;22.02
60731;BMP280;46580;52.114;11.674;2022-08-27T08:17:38;100743.38;;;22.11
60731;BMP280;46580;52.114;11.674;2022-08-27T08:20:06;100741.47;;;22.19
60731;BMP280;46580;52.114;11.674;2022-08-27T08:22:32;100745.59;;;22.28
60731;BMP280;46580;52.114;11.674;2022-08-27T08:24:58;100741.16;;;22.28
60731;BMP280;46580;52.114;11.674;2022-08-27T08:27:23;100742.16;;;22.27
60731;BMP280;46580;52.114;11.674;2022-08-27T08:29:49;100745.34;;;22.23
60731;BMP280;46580;52.114;11.674;2022-08-27T08:32:15;100737.66;;;22.21
60731;BMP280;46580;52.114;11.674;2022-08-27T08:34:42;100753.56;;;22.40
60731;BMP280;46580;52.114;11.674;2022-08-27T08:37:08;100752.03;;;22.52
60731;BMP280;46580;52.114;11.674;2022-08-27T08:39:35;100750.84;;;22.54
60731;BMP280;46580;52.114;11.674;2022-08-27T08:42:04;100756.44;;;22.72
60731;BMP280;46580;52.114;11.674;2022-08-27T08:44:45;100761.09;;;22.97
60731;BMP280;46580;52.114;11.674;2022-08-27T08:47:15;100753.72;;;23.19
60731;BMP280;46580;52.114;11.674;2022-08-27T08:55:09;100753.38;;;22.62
60731;BMP280;46580;52.114;11.674;2022-08-27T09:00:45;100761.50;;;22.73
60731;BMP280;46580;52.114;11.674;2022-08-27T09:03:13;100759.38;;;22.83
60731;BMP280;46580;52.114;11.674;2022-08-27T09:05:46;100755.38;;;22.93
60731;BMP280;46580;52.114;11.674;2022-08-27T09:08:34;100766.41;;;23.10
60731;BMP280;46580;52.114;11.674;2022-08-27T09:11:26;100769.06;;;22.83
60731;BMP280;46580;52.114;11.674;2022-08-27T09:13:56;100759.22;;;22.64
60731;BMP280;46580;52.114;11.674;2022-08-27T09:16:23;100774.25;;;22.76
60731;BMP280;46580;52.114;11.674;2022-08-27T09:18:49;100765.53;;;22.70
60731;BMP280;46580;52.114;11.674;2022-08-27T09:24:11;100761.78;;;22.85
60731;BMP280;46580;52.114;11.674;2022-08-27T09:26:41;100772.28;;;22.85
60731;BMP280;46580;52.114;11.674;2022-08-27T09:29:10;100767.94;;;22.71
60731;BMP280;46580;52.114;11.674;2022-08-27T09:34:21;100759.81;;;22.93
60731;BMP280;46580;52.114;11.674;2022-08-27T09:37:05;100766.28;;;22.91
60731;BMP280;46580;52.114;11.674;2022-08-27T09:42:23;100773.50;;;22.82
60731;BMP280;46580;52.114;11.674;2022-08-27T09:44:52;100767.38;;;22.75
60731;BMP280;46580;52.114;11.674;2022-08-27T09:47:18;100777.09;;;22.54
60731;BMP280;46580;52.114;11.674;2022-08-27T09:49:43;100777.53;;;22.37
60731;BMP280;46580;52.114;11.674;2022-08-27T09:52:09;100774.25;;;22.29
60731;BMP280;46580;52.114;11.674;2022-08-27T09:54:48;100776.63;;;22.51
60731;BMP280;46580;52.114;11.674;2022-08-27T09:57:31;100771.78;;;22.48
60731;BMP280;46580;52.114;11.674;2022-08-27T09:59:58;100766.94;;;22.52
60731;BMP280;46580;52.114;11.674;2022-08-27T10:02:26;100774.78;;;22.45
60731;BMP280;46580;52.114;11.674;2022-08-27T10:04:57;100768.97;;;22.50
60731;BMP280;46580;52.114;11.674;2022-08-27T10:07:45;100772.19;;;22.52
60731;BMP280;46580;52.114;11.674;2022-08-27T10:10:42;100769.84;;;22.56
60731;BMP280;46580;52.114;11.674;2022-08-27T10:13:17;100775.28;;;22.55
60731;BMP280;46580;52.114;11.674;2022-08-27T10:16:08;100773.31;;;22.57
60731;BMP280;46580;52.114;11.674;2022-08-27T10:18:46;100771.66;;;22.56
60731;BMP280;46580;52.114;11.674;2022-08-27T10:23:53;100771.06;;;22.34
60731;BMP280;46580;52.114;11.674;2022-08-27T10:26:27;100779.69;;;22.07
60731;BMP280;46580;52.114;11.674;2022-08-27T10:31:43;100772.00;;;22.26
60731;BMP280;46580;52.114;11.674;2022-08-27T10:34:33;100775.41;;;22.68
60731;BMP280;46580;52.114;11.674;2022-08-27T10:39:51;100777.03;;;22.48
60731;BMP280;46580;52.114;11.674;2022-08-27T10:42:26;100778.56;;;22.84
60731;BMP280;46580;52.114;11.674;2022-08-27T10:45:09;100779.34;;;23.11
60731;BMP280;46580;52.114;11.674;2022-08-27T10:50:23;100778.53;;;24.02
60731;BMP280;46580;52.114;11.674;2022-08-27T10:53:02;100775.31;;;24.06
60731;BMP280;46580;52.114;11.674;2022-08-27T10:55:40;100779.75;;;24.06
60731;BMP280;46580;52.114;11.674;2022-08-27T11:04:02;100777.25;;;23.85
60731;BMP280;46580;52.114;11.674;2022-08-27T11:06:34;100776.38;;;24.31
60731;BMP280;46580;52.114;11.674;2022-08-27T11:09:09;100774.56;;;24.31
60731;BMP280;46580;52.114;11.674;2022-08-27T11:11:41;100763.41;;;24.42
60731;BMP280;46580;52.114;11.674;2022-08-27T11:14:18;100766.84;;;24.55
60731;BMP280;46580;52.114;11.674;2022-08-27T11:16:48;100761.19;;;24.58
60731;BMP280;46580;52.114;11.674;2022-08-27T11:19:26;100758.94;;;24.87
60731;BMP280;46580;52.114;11.674;2022-08-27T11:22:00;100765.84;;;24.75
60731;BMP280;46580;52.114;11.674;2022-08-27T11:24:42;100766.03;;;24.80
60731;BMP280;46580;52.114;11.674;2022-08-27T11:27:18;100754.47;;;24.87
60731;BMP280;46580;52.114;11.674;2022-08-27T11:30:03;100752.19;;;25.16
60731;BMP280;46580;52.114;11.674;2022-08-27T11:32:52;100748.47;;;25.42
60731;BMP280;46580;52.114;11.674;2022-08-27T11:35:41;100752.31;;;25.89
60731;BMP280;46580;52.114;11.674;2022-08-27T11:38:52;100748.72;;;25.22
60731;BMP280;46580;52.114;11.674;2022-08-27T11:43:47;100741.16;;;25.51
60731;BMP280;46580;52.114;11.674;2022-08-27T11:46:24;100739.28;;;25.57
60731;BMP280;46580;52.114;11.674;2022-08-27T11:48:58;100739.94;;;25.53
60731;BMP280;46580;52.114;11.674;2022-08-27T11:51:33;100743.22;;;25.42
60731;BMP280;46580;52.114;11.674;2022-08-27T11:54:05;100739.53;;;25.50
60731;BMP280;46580;52.114;11.674;2022-08-27T12:01:34;100739.66;;;25.67
60731;BMP280;46580;52.114;11.674;2022-08-27T12:04:32;100738.19;;;25.71
60731;BMP280;46580;52.114;11.674;2022-08-27T12:06:58;100739.22;;;25.27
60731;BMP280;46580;52.114;11.674;2022-08-27T12:09:24;100741.66;;;25.16
60731;BMP280;46580;52.114;11.674;2022-08-27T12:12:33;100740.94;;;24.52
60731;BMP280;46580;52.114;11.674;2022-08-27T12:15:05;100735.47;;;24.22
60731;BMP280;46580;52.114;11.674;2022-08-27T12:20:50;100733.56;;;25.17
60731;BMP280;46580;52.114;11.674;2022-08-27T12:23:29;100733.66;;;25.48
60731;BMP280;46580;52.114;11.674;2022-08-27T12:29:23;100736.06;;;24.75
60731;BMP280;46580;52.114;11.674;2022-08-27T12:31:52;100731.47;;;25.38
60731;BMP280;46580;52.114;11.674;2022-08-27T12:34:23;100727.28;;;25.61
60731;BMP280;46580;52.114;11.674;2022-08-27T12:36:50;100728.06;;;25.32
60731;BMP280;46580;52.114;11.674;2022-08-27T12:39:18;100741.22;;;25.74
60731;BMP280;46580;52.114;11.674;2022-08-27T12:41:46;100723.34;;;25.76
60731;BMP280;46580;52.114;11.674;2022-08-27T12:44:21;100725.22;;;25.70
60731;BMP280;46580;52.114;11.674;2022-08-27T12:46:59;100727.53;;;25.60
60731;BMP280;46580;52.114;11.674;2022-08-27T12:55:09;100722.09;;;26.15
60731;BMP280;46580;52.114;11.674;2022-08-27T12:57:59;100723.63;;;25.62
60731;BMP280;46580;52.114;11.674;2022-08-27T13:00:30;100734.47;;;25.48
60731;BMP280;46580;52.114;11.674;2022-08-27T13:03:40;100736.53;;;25.76
60731;BMP280;46580;52.114;11.674;2022-08-27T13:06:19;100730.28;;;25.71
60731;BMP280;46580;52.114;11.674;2022-08-27T13:08:45;100736.41;;;25.65
60731;BMP280;46580;52.114;11.674;2022-08-27T13:11:24;100738.00;;;25.17
60731;BMP280;46580;52.114;11.674;2022-08-27T13:13:51;100738.84;;;25.11
60731;BMP280;46580;52.114;11.674;2022-08-27T13:16:18;100732.00;;;24.98
60731;BMP280;46580;52.114;11.674;2022-08-27T13:18:48;100729.97;;;24.87
60731;BMP280;46580;52.114;11.674;2022-08-27T13:21:22;100735.78;;;25.08
60731;BMP280;46580;52.114;11.674;2022-08-27T13:24:06;100728.38;;;24.92
60731;BMP280;46580;52.114;11.674;2022-08-27T13:26:36;100731.81;;;24.93
60731;BMP280;46580;52.114;11.674;2022-08-27T13:29:06;100733.63;;;24.92
60731;BMP280;46580;52.114;11.674;2022-08-27T13:31:33;100726.72;;;25.04
60731;BMP280;46580;52.114;11.674;2022-08-27T13:34:03;100730.41;;;24.84
60731;BMP280;46580;52.114;11.674;2022-08-27T13:36:32;100735.88;;;24.76
60731;BMP280;46580;52.114;11.674;2022-08-27T13:38:58;100730.63;;;24.76
60731;BMP280;46580;52.114;11.674;2022-08-27T13:41:32;100731.66;;;24.62
60731;BMP280;46580;52.114;11.674;2022-08-27T13:44:08;100748.63;;;24.16
60731;BMP280;46580;52.114;11.674;2022-08-27T13:46:44;100739.91;;;24.09
60731;BMP280;46580;52.114;11.674;2022-08-27T13:49:15;100753.00;;;23.90
60731;BMP280;46580;52.114;11.674;2022-08-27T13:51:41;100740.75;;;23.51
60731;BMP280;46580;52.114;11.674;2022-08-27T13:54:10;100762.81;;;23.17
60731;BMP280;46580;52.114;11.674;2022-08-27T13:59:25;100763.28;;;23.00
60731;BMP280;46580;52.114;11.674;2022-08-27T14:09:50;100769.50;;;22.92
60731;BMP280;46580;52.114;11.674;2022-08-27T14:12:36;100768.47;;;23.20
60731;BMP280;46580;52.114;11.674;2022-08-27T14:15:19;100769.34;;;23.27
60731;BMP280;46580;52.114;11.674;2022-08-27T14:17:45;100765.81;;;23.53
60731;BMP280;46580;52.114;11.674;2022-08-27T14:20:12;100772.81;;;23.86
60731;BMP280;46580;52.114;11.674;2022-08-27T14:22:40;100777.88;;;23.87
60731;BMP280;46580;52.114;11.674;2022-08-27T14:25:05;100781.47;;;23.74
60731;BMP280;46580;52.114;11.674;2022-08-27T14:27:34;100786.84;;;23.53
60731;BMP280;46580;52.114;11.674;2022-08-27T14:30:00;100795.13;;;23.50
60731;BMP280;46580;52.114;11.674;2022-08-27T14:32:25;100793.22;;;23.32
60731;BMP280;46580;52.114;11.674;2022-08-27T14:34:50;100793.09;;;23.19
60731;BMP280;46580;52.114;11.674;2022-08-27T14:37:17;100798.25;;;23.27
60731;BMP280;46580;52.114;11.674;2022-08-27T14:39:42;100801.13;;;23.11
60731;BMP280;46580;52.114;11.674;2022-08-27T14:42:08;100803.75;;;23.11
60731;BMP280;46580;52.114;11.674;2022-08-27T14:44:34;100800.09;;;23.06
60731;BMP280;46580;52.114;11.674;2022-08-27T14:47:00;100805.09;;;22.68
60731;BMP280;46580;52.114;11.674;2022-08-27T14:49:36;100799.97;;;22.60
60731;BMP280;46580;52.114;11.674;2022-08-27T14:52:03;100805.50;;;22.51
60731;BMP280;46580;52.114;11.674;2022-08-27T14:54:29;100809.41;;;22.35
60731;BMP280;46580;52.114;11.674;2022-08-27T14:56:55;100819.66;;;22.50
60731;BMP280;46580;52.114;11.674;2022-08-27T14:59:25;100817.56;;;22.46
60731;BMP280;46580;52.114;11.674;2022-08-27T15:01:51;100821.75;;;22.20
60731;BMP280;46580;52.114;11.674;2022-08-27T15:04:18;100815.06;;;22.38
60731;BMP280;46580;52.114;11.674;2022-08-27T15:06:43;100831.19;;;22.35